createdAt,value
2018-07-31T00:00:03.781Z,800.72
2018-07-31T00:00:07.768Z,800.74
2018-07-31T00:00:12.083Z,800.71
2018-07-31T00:00:16.188Z,800.71
2018-07-31T00:00:20.392Z,800.72
2018-07-31T00:00:24.698Z,800.73
2018-07-31T00:00:28.900Z,800.71
2018-07-31T00:00:33.107Z,800.72
2018-07-31T00:00:37.415Z,800.7
2018-07-31T00:00:41.733Z,800.68
2018-07-31T00:00:45.937Z,800.7
2018-07-31T00:00:50.258Z,800.7
2018-07-31T00:00:54.352Z,800.67
2018-07-31T00:00:58.692Z,800.69
2018-07-31T00:01:02.907Z,800.7
2018-07-31T00:01:07.015Z,800.71
2018-07-31T00:01:11.124Z,800.68
2018-07-31T00:01:15.340Z,800.68
2018-07-31T00:01:19.542Z,800.7
2018-07-31T00:01:23.756Z,800.72
2018-07-31T00:01:27.959Z,800.68
2018-07-31T00:01:32.060Z,800.7
2018-07-31T00:01:36.267Z,800.69
2018-07-31T00:01:40.582Z,800.68
2018-07-31T00:01:44.795Z,800.66
2018-07-31T00:01:49.006Z,800.69
2018-07-31T00:01:53.115Z,800.71
2018-07-31T00:01:57.212Z,800.71
2018-07-31T00:02:01.432Z,800.68
2018-07-31T00:02:05.420Z,800.7
2018-07-31T00:02:09.630Z,800.69
2018-07-31T00:02:13.941Z,800.67
2018-07-31T00:02:18.044Z,800.69
2018-07-31T00:02:22.147Z,800.71
2018-07-31T00:02:26.030Z,800.69
2018-07-31T00:02:30.339Z,800.69
2018-07-31T00:02:34.558Z,800.67
2018-07-31T00:02:38.875Z,800.72
2018-07-31T00:02:43.187Z,800.66
2018-07-31T00:02:47.385Z,800.7
2018-07-31T00:02:51.593Z,800.73
2018-07-31T00:02:55.800Z,800.68
2018-07-31T00:02:59.898Z,800.68
2018-07-31T00:03:04.119Z,800.64
2018-07-31T00:03:08.113Z,800.67
2018-07-31T00:03:12.419Z,800.71
2018-07-31T00:03:16.620Z,800.68
2018-07-31T00:03:21.106Z,800.71
2018-07-31T00:03:25.624Z,800.67
2018-07-31T00:03:30.262Z,800.63
2018-07-31T00:03:35.314Z,800.65
2018-07-31T00:03:39.527Z,800.71
2018-07-31T00:03:43.633Z,800.68
2018-07-31T00:03:47.957Z,800.7
2018-07-31T00:03:52.055Z,800.66
2018-07-31T00:03:56.266Z,800.69
2018-07-31T00:04:00.364Z,800.67
2018-07-31T00:04:04.575Z,800.69
2018-07-31T00:04:08.795Z,800.68
2018-07-31T00:04:13.115Z,800.69
2018-07-31T00:04:17.214Z,800.68
2018-07-31T00:04:21.526Z,800.65
2018-07-31T00:04:25.628Z,800.66
2018-07-31T00:04:29.722Z,800.69
2018-07-31T00:04:34.036Z,800.66
2018-07-31T00:04:38.351Z,800.7
2018-07-31T00:04:42.460Z,800.64
2018-07-31T00:04:46.768Z,800.66
2018-07-31T00:04:50.986Z,800.64
2018-07-31T00:04:55.191Z,800.66
2018-07-31T00:04:59.400Z,800.67
2018-07-31T00:05:03.499Z,800.66
2018-07-31T00:05:07.815Z,800.66
2018-07-31T00:05:11.918Z,800.67
2018-07-31T00:05:16.019Z,800.67
2018-07-31T00:05:20.220Z,800.69
2018-07-31T00:05:24.536Z,800.65
2018-07-31T00:05:28.737Z,800.71
2018-07-31T00:05:33.047Z,800.69
2018-07-31T00:05:37.252Z,800.68
2018-07-31T00:05:41.510Z,800.63
2018-07-31T00:05:45.830Z,800.7
2018-07-31T00:05:49.820Z,800.69
2018-07-31T00:05:53.824Z,800.71
2018-07-31T00:05:58.027Z,800.72
2018-07-31T00:06:02.175Z,800.7
2018-07-31T00:06:06.270Z,800.72
2018-07-31T00:06:10.476Z,800.7
2018-07-31T00:06:14.573Z,800.72
2018-07-31T00:06:18.778Z,800.73
2018-07-31T00:06:22.977Z,800.72
2018-07-31T00:06:27.179Z,800.75
2018-07-31T00:06:31.490Z,800.72
2018-07-31T00:06:35.687Z,800.74
2018-07-31T00:06:39.791Z,800.73
2018-07-31T00:06:43.991Z,800.73
2018-07-31T00:06:48.306Z,800.74
2018-07-31T00:06:52.509Z,800.74
2018-07-31T00:06:56.509Z,800.74
2018-07-31T00:07:00.814Z,800.72
2018-07-31T00:07:04.910Z,800.75
2018-07-31T00:07:08.899Z,800.73
2018-07-31T00:07:13.213Z,800.73
2018-07-31T00:07:17.313Z,800.72
2018-07-31T00:07:21.515Z,800.75
2018-07-31T00:07:25.755Z,800.76
2018-07-31T00:07:29.641Z,800.77
2018-07-31T00:07:33.841Z,800.78
2018-07-31T00:07:38.153Z,800.75
2018-07-31T00:07:42.244Z,800.8
2018-07-31T00:07:46.441Z,800.76
2018-07-31T00:07:50.750Z,800.76
2018-07-31T00:07:54.948Z,800.78
2018-07-31T00:07:59.042Z,800.78
2018-07-31T00:08:03.407Z,800.76
2018-07-31T00:08:07.609Z,800.78
2018-07-31T00:08:11.809Z,800.78
2018-07-31T00:08:16.011Z,800.76
2018-07-31T00:08:20.316Z,800.76
2018-07-31T00:08:24.515Z,800.76
2018-07-31T00:08:28.766Z,800.75
2018-07-31T00:08:32.965Z,800.78
2018-07-31T00:08:37.271Z,800.78
2018-07-31T00:08:41.587Z,800.78
2018-07-31T00:08:45.785Z,800.77
2018-07-31T00:08:50.101Z,800.77
2018-07-31T00:08:54.417Z,800.81
2018-07-31T00:08:58.726Z,800.81
2018-07-31T00:09:02.879Z,800.81
2018-07-31T00:09:07.078Z,800.77
2018-07-31T00:09:11.189Z,800.8
2018-07-31T00:09:15.393Z,800.82
2018-07-31T00:09:19.592Z,800.77
2018-07-31T00:09:23.903Z,800.79
2018-07-31T00:09:28.151Z,800.83
2018-07-31T00:09:32.465Z,800.83
2018-07-31T00:09:36.559Z,800.83
2018-07-31T00:09:40.669Z,800.79
2018-07-31T00:09:44.977Z,800.86
2018-07-31T00:09:49.176Z,800.77
2018-07-31T00:09:53.485Z,800.83
2018-07-31T00:09:57.696Z,800.85
2018-07-31T00:10:02.006Z,800.83
2018-07-31T00:10:06.103Z,800.85
2018-07-31T00:10:10.200Z,800.82
2018-07-31T00:10:14.562Z,800.84
2018-07-31T00:10:18.664Z,800.85
2018-07-31T00:10:23.017Z,800.82
2018-07-31T00:10:27.209Z,800.85
2018-07-31T00:10:31.572Z,800.86
2018-07-31T00:10:36.027Z,800.86
2018-07-31T00:10:41.083Z,800.85
2018-07-31T00:10:45.295Z,800.87
2018-07-31T00:10:49.391Z,800.87
2018-07-31T00:10:53.592Z,800.89
2018-07-31T00:10:57.912Z,800.89
2018-07-31T00:11:02.122Z,800.9
2018-07-31T00:11:06.268Z,800.83
2018-07-31T00:11:10.472Z,800.9
2018-07-31T00:11:14.786Z,800.9
2018-07-31T00:11:19.004Z,800.9
2018-07-31T00:11:23.319Z,800.9
2018-07-31T00:11:27.634Z,800.87
2018-07-31T00:11:31.733Z,800.87
2018-07-31T00:11:36.048Z,800.91
2018-07-31T00:11:40.248Z,800.93
2018-07-31T00:11:44.503Z,800.9
2018-07-31T00:11:48.605Z,800.9
2018-07-31T00:11:52.600Z,800.93
2018-07-31T00:11:56.909Z,800.94
2018-07-31T00:12:01.113Z,800.93
2018-07-31T00:12:05.446Z,800.93
2018-07-31T00:12:09.552Z,800.9
2018-07-31T00:12:13.653Z,800.89
2018-07-31T00:12:17.861Z,800.93
2018-07-31T00:12:22.072Z,800.9
2018-07-31T00:12:26.064Z,800.91
2018-07-31T00:12:30.369Z,800.89
2018-07-31T00:12:34.685Z,800.89
2018-07-31T00:12:38.994Z,800.91
2018-07-31T00:12:42.986Z,800.92
2018-07-31T00:12:47.297Z,800.91
2018-07-31T00:12:51.513Z,800.94
2018-07-31T00:12:55.823Z,800.91
2018-07-31T00:12:59.813Z,800.88
2018-07-31T00:13:04.050Z,800.91
2018-07-31T00:13:08.256Z,800.85
2018-07-31T00:13:12.358Z,800.92
2018-07-31T00:13:16.558Z,800.93
2018-07-31T00:13:20.653Z,800.85
2018-07-31T00:13:24.658Z,800.89
2018-07-31T00:13:28.974Z,800.89
2018-07-31T00:13:33.068Z,800.91
2018-07-31T00:13:37.167Z,800.88
2018-07-31T00:13:41.477Z,800.87
2018-07-31T00:13:45.680Z,800.88
2018-07-31T00:13:50.001Z,800.88
2018-07-31T00:13:54.315Z,800.89
2018-07-31T00:13:58.536Z,800.89
2018-07-31T00:14:02.746Z,800.87
2018-07-31T00:14:07.067Z,800.85
2018-07-31T00:14:11.379Z,800.86
2018-07-31T00:14:15.584Z,800.86
2018-07-31T00:14:19.688Z,800.87
2018-07-31T00:14:23.684Z,800.9
2018-07-31T00:14:27.998Z,800.85
2018-07-31T00:14:32.307Z,800.86
2018-07-31T00:14:36.508Z,800.87
2018-07-31T00:14:40.701Z,800.83
2018-07-31T00:14:45.026Z,800.82
2018-07-31T00:14:49.223Z,800.86
2018-07-31T00:14:53.533Z,800.84
2018-07-31T00:14:57.788Z,800.81
2018-07-31T00:15:02.102Z,800.86
2018-07-31T00:15:06.217Z,800.85
2018-07-31T00:15:10.317Z,800.85
2018-07-31T00:15:14.640Z,800.84
2018-07-31T00:15:18.949Z,800.83
2018-07-31T00:15:23.042Z,800.84
2018-07-31T00:15:27.244Z,800.86
2018-07-31T00:15:31.340Z,800.8
2018-07-31T00:15:35.663Z,800.87
2018-07-31T00:15:39.869Z,800.85
2018-07-31T00:15:44.068Z,800.85
2018-07-31T00:15:48.168Z,800.79
2018-07-31T00:15:52.372Z,800.86
2018-07-31T00:15:56.689Z,800.83
2018-07-31T00:16:00.786Z,800.84
2018-07-31T00:16:04.989Z,800.84
2018-07-31T00:16:09.201Z,800.83
2018-07-31T00:16:13.425Z,800.85
2018-07-31T00:16:17.631Z,800.84
2018-07-31T00:16:21.934Z,800.83
2018-07-31T00:16:26.252Z,800.84
2018-07-31T00:16:30.560Z,800.84
2018-07-31T00:16:34.668Z,800.83
2018-07-31T00:16:38.779Z,800.85
2018-07-31T00:16:42.984Z,800.82
2018-07-31T00:16:47.075Z,800.79
2018-07-31T00:16:51.289Z,800.82
2018-07-31T00:16:55.492Z,800.81
2018-07-31T00:16:59.687Z,800.83
2018-07-31T00:17:03.778Z,800.8
2018-07-31T00:17:07.774Z,800.82
2018-07-31T00:17:11.985Z,800.82
2018-07-31T00:17:16.088Z,800.81
2018-07-31T00:17:20.394Z,800.86
2018-07-31T00:17:24.389Z,800.84
2018-07-31T00:17:28.702Z,800.83
2018-07-31T00:17:32.907Z,800.81
2018-07-31T00:17:37.104Z,800.79
2018-07-31T00:17:41.310Z,800.81
2018-07-31T00:17:45.619Z,800.85
2018-07-31T00:17:49.818Z,800.79
2018-07-31T00:17:54.131Z,800.83
2018-07-31T00:17:58.449Z,800.82
2018-07-31T00:18:02.546Z,800.84
2018-07-31T00:18:06.872Z,800.84
2018-07-31T00:18:10.967Z,800.83
2018-07-31T00:18:15.163Z,800.86
2018-07-31T00:18:19.366Z,800.86
2018-07-31T00:18:23.673Z,800.84
2018-07-31T00:18:27.877Z,800.84
2018-07-31T00:18:32.086Z,800.86
2018-07-31T00:18:36.182Z,800.86
2018-07-31T00:18:40.385Z,800.84
2018-07-31T00:19:16.690Z,800.84
2018-07-31T00:19:20.890Z,800.86
2018-07-31T00:19:25.092Z,800.86
2018-07-31T00:19:29.402Z,800.84
2018-07-31T00:19:33.493Z,800.83
2018-07-31T00:19:37.480Z,800.87
2018-07-31T00:19:41.735Z,800.87
2018-07-31T00:19:45.943Z,800.9
2018-07-31T00:19:50.256Z,800.87
2018-07-31T00:19:54.456Z,800.87
2018-07-31T00:19:58.662Z,800.88
2018-07-31T00:20:02.915Z,800.9
2018-07-31T00:20:06.904Z,800.87
2018-07-31T00:20:11.210Z,800.89
2018-07-31T00:20:15.307Z,800.91
2018-07-31T00:20:19.632Z,800.88
2018-07-31T00:20:23.832Z,800.87
2018-07-31T00:20:27.924Z,800.85
2018-07-31T00:20:32.240Z,800.89
2018-07-31T00:20:36.553Z,800.86
2018-07-31T00:20:40.874Z,800.83
2018-07-31T00:20:44.864Z,800.85
2018-07-31T00:20:48.969Z,800.83
2018-07-31T00:20:53.175Z,800.86
2018-07-31T00:20:57.531Z,800.9
2018-07-31T00:21:01.733Z,800.9
2018-07-31T00:21:05.834Z,800.85
2018-07-31T00:21:10.039Z,800.84
2018-07-31T00:21:14.241Z,800.86
2018-07-31T00:21:18.336Z,800.86
2018-07-31T00:21:22.564Z,800.86
2018-07-31T00:21:26.870Z,800.87
2018-07-31T00:21:31.182Z,800.82
2018-07-31T00:21:35.389Z,800.9
2018-07-31T00:21:39.597Z,800.89
2018-07-31T00:21:43.804Z,800.86
2018-07-31T00:21:48.007Z,800.84
2018-07-31T00:21:52.105Z,800.87
2018-07-31T00:21:56.302Z,800.85
2018-07-31T00:22:00.612Z,800.86
2018-07-31T00:22:04.812Z,800.87
2018-07-31T00:22:08.798Z,800.87
2018-07-31T00:22:13.013Z,800.86
2018-07-31T00:22:17.269Z,800.86
2018-07-31T00:22:21.475Z,800.84
2018-07-31T00:22:25.670Z,800.86
2018-07-31T00:22:29.871Z,800.81
2018-07-31T00:22:34.072Z,800.86
2018-07-31T00:22:38.386Z,800.84
2018-07-31T00:22:42.691Z,800.84
2018-07-31T00:22:47.005Z,800.87
2018-07-31T00:22:51.315Z,800.86
2018-07-31T00:22:55.625Z,800.86
2018-07-31T00:22:59.828Z,800.87
2018-07-31T00:23:04.033Z,800.86
2018-07-31T00:23:08.341Z,800.87
2018-07-31T00:23:12.653Z,800.89
2018-07-31T00:23:16.856Z,800.87
2018-07-31T00:23:21.062Z,800.91
2018-07-31T00:23:25.385Z,800.9
2018-07-31T00:23:29.583Z,800.86
2018-07-31T00:23:33.793Z,800.9
2018-07-31T00:23:38.107Z,800.9
2018-07-31T00:23:42.312Z,800.91
2018-07-31T00:23:46.621Z,800.92
2018-07-31T00:23:50.934Z,800.93
2018-07-31T00:23:55.130Z,800.96
2018-07-31T00:23:59.443Z,800.93
2018-07-31T00:24:03.530Z,800.86
2018-07-31T00:24:07.841Z,800.92
2018-07-31T00:24:12.047Z,800.93
2018-07-31T00:24:16.252Z,800.94
2018-07-31T00:24:20.351Z,800.95
2018-07-31T00:24:24.662Z,800.92
2018-07-31T00:24:28.540Z,800.94
2018-07-31T00:24:32.741Z,800.95
2018-07-31T00:24:37.046Z,800.95
2018-07-31T00:24:41.355Z,800.96
2018-07-31T00:24:45.660Z,800.94
2018-07-31T00:24:49.963Z,800.94
2018-07-31T00:24:54.265Z,800.96
2018-07-31T00:24:58.573Z,800.99
2018-07-31T00:25:02.784Z,800.94
2018-07-31T00:25:06.884Z,800.97
2018-07-31T00:25:11.192Z,801
2018-07-31T00:25:15.291Z,800.98
2018-07-31T00:25:19.435Z,800.97
2018-07-31T00:25:23.738Z,800.98
2018-07-31T00:25:27.936Z,800.99
2018-07-31T00:25:32.264Z,801
2018-07-31T00:25:36.572Z,801.01
2018-07-31T00:25:40.784Z,801
2018-07-31T00:25:44.886Z,801.01
2018-07-31T00:25:49.195Z,800.99
2018-07-31T00:25:53.393Z,800.99
2018-07-31T00:25:57.588Z,801
2018-07-31T00:26:01.894Z,800.98
2018-07-31T00:26:05.992Z,800.99
2018-07-31T00:26:10.300Z,801.02
2018-07-31T00:26:14.614Z,800.99
2018-07-31T00:26:18.814Z,801.02
2018-07-31T00:26:23.023Z,801.01
2018-07-31T00:26:27.238Z,801
2018-07-31T00:26:31.452Z,801.02
2018-07-31T00:26:35.655Z,800.98
2018-07-31T00:26:39.753Z,801.05
2018-07-31T00:26:43.642Z,801.05
2018-07-31T00:26:47.945Z,801.03
2018-07-31T00:26:52.159Z,801.02
2018-07-31T00:26:56.470Z,801
2018-07-31T00:27:00.562Z,801.03
2018-07-31T00:27:04.718Z,801.02
2018-07-31T00:27:08.809Z,801.03
2018-07-31T00:27:13.114Z,801.01
2018-07-31T00:27:17.428Z,801.01
2018-07-31T00:27:21.628Z,801.03
2018-07-31T00:27:25.946Z,801.05
2018-07-31T00:27:30.149Z,801.01
2018-07-31T00:27:34.243Z,800.98
2018-07-31T00:27:38.441Z,801.03
2018-07-31T00:27:42.533Z,801
2018-07-31T00:27:46.729Z,800.98
2018-07-31T00:27:51.040Z,800.96
2018-07-31T00:27:55.242Z,801
2018-07-31T00:27:59.448Z,800.98
2018-07-31T00:28:03.646Z,800.99
2018-07-31T00:28:07.952Z,801.01
2018-07-31T00:28:12.166Z,801
2018-07-31T00:28:16.475Z,801
2018-07-31T00:28:20.795Z,801.02
2018-07-31T00:28:24.884Z,800.99
2018-07-31T00:28:28.973Z,801.02
2018-07-31T00:28:33.071Z,800.97
2018-07-31T00:28:37.161Z,801.01
2018-07-31T00:28:41.472Z,800.99
2018-07-31T00:28:45.680Z,800.98
2018-07-31T00:28:49.885Z,800.96
2018-07-31T00:28:54.085Z,800.97
2018-07-31T00:28:58.184Z,800.98
2018-07-31T00:29:02.388Z,800.96
2018-07-31T00:29:06.591Z,800.99
2018-07-31T00:29:10.696Z,800.96
2018-07-31T00:29:14.904Z,800.96
2018-07-31T00:29:18.995Z,800.96
2018-07-31T00:29:23.198Z,800.98
2018-07-31T00:29:27.080Z,801
2018-07-31T00:29:31.296Z,800.95
2018-07-31T00:29:35.497Z,800.96
2018-07-31T00:29:39.802Z,800.95
2018-07-31T00:29:44.008Z,800.94
2018-07-31T00:29:48.110Z,800.94
2018-07-31T00:29:52.205Z,800.91
2018-07-31T00:29:56.299Z,800.92
2018-07-31T00:30:00.501Z,800.95
2018-07-31T00:30:04.713Z,800.91
2018-07-31T00:30:08.924Z,800.9
2018-07-31T00:30:13.020Z,800.92
2018-07-31T00:30:17.324Z,800.9
2018-07-31T00:30:21.530Z,800.93
2018-07-31T00:30:25.738Z,800.91
2018-07-31T00:30:29.950Z,800.9
2018-07-31T00:30:34.149Z,800.9
2018-07-31T00:30:38.244Z,800.92
2018-07-31T00:30:42.242Z,800.87
2018-07-31T00:30:46.447Z,800.91
2018-07-31T00:30:50.767Z,800.88
2018-07-31T00:30:54.858Z,800.91
2018-07-31T00:30:59.060Z,800.89
2018-07-31T00:31:03.045Z,800.9
2018-07-31T00:31:07.253Z,800.9
2018-07-31T00:31:11.456Z,800.91
2018-07-31T00:31:15.655Z,800.87
2018-07-31T00:31:19.854Z,800.86
2018-07-31T00:31:23.945Z,800.89
2018-07-31T00:31:28.045Z,800.88
2018-07-31T00:31:32.141Z,800.89
2018-07-31T00:31:36.346Z,800.86
2018-07-31T00:31:40.336Z,800.87
2018-07-31T00:31:44.644Z,800.87
2018-07-31T00:31:48.950Z,800.8
2018-07-31T00:31:53.039Z,800.83
2018-07-31T00:31:57.141Z,800.79
2018-07-31T00:32:01.458Z,800.8
2018-07-31T00:32:05.443Z,800.84
2018-07-31T00:32:09.645Z,800.86
2018-07-31T00:32:13.847Z,800.83
2018-07-31T00:32:18.167Z,800.83
2018-07-31T00:32:22.480Z,800.82
2018-07-31T00:32:26.683Z,800.74
2018-07-31T00:32:30.883Z,800.82
2018-07-31T00:32:35.087Z,800.8
2018-07-31T00:32:39.298Z,800.79
2018-07-31T00:32:43.601Z,800.81
2018-07-31T00:32:47.805Z,800.77
2018-07-31T00:32:52.009Z,800.76
2018-07-31T00:32:56.312Z,800.79
2018-07-31T00:33:00.514Z,800.79
2018-07-31T00:33:04.716Z,800.74
2018-07-31T00:33:09.025Z,800.74
2018-07-31T00:33:13.125Z,800.75
2018-07-31T00:33:17.116Z,800.72
2018-07-31T00:33:21.252Z,800.74
2018-07-31T00:33:25.348Z,800.7
2018-07-31T00:33:29.557Z,800.73
2018-07-31T00:33:33.863Z,800.73
2018-07-31T00:33:37.959Z,800.74
2018-07-31T00:33:41.948Z,800.66
2018-07-31T00:33:46.154Z,800.74
2018-07-31T00:33:50.465Z,800.71
2018-07-31T00:33:54.559Z,800.7
2018-07-31T00:33:58.864Z,800.71
2018-07-31T00:34:03.064Z,800.7
2018-07-31T00:34:07.163Z,800.68
2018-07-31T00:34:11.476Z,800.67
2018-07-31T00:34:15.670Z,800.66
2018-07-31T00:34:19.878Z,800.66
2018-07-31T00:34:23.975Z,800.65
2018-07-31T00:34:28.184Z,800.68
2018-07-31T00:34:32.493Z,800.67
2018-07-31T00:34:36.693Z,800.65
2018-07-31T00:34:40.899Z,800.66
2018-07-31T00:34:45.102Z,800.64
2018-07-31T00:34:49.323Z,800.64
2018-07-31T00:34:53.631Z,800.64
2018-07-31T00:34:57.717Z,800.65
2018-07-31T00:35:01.711Z,800.66
2018-07-31T00:35:05.593Z,800.65
2018-07-31T00:35:09.801Z,800.66
2018-07-31T00:35:13.899Z,800.62
2018-07-31T00:35:18.204Z,800.62
2018-07-31T00:35:22.405Z,800.61
2018-07-31T00:35:26.611Z,800.64
2018-07-31T00:35:30.924Z,800.64
2018-07-31T00:35:35.236Z,800.62
2018-07-31T00:35:39.430Z,800.62
2018-07-31T00:35:43.636Z,800.59
2018-07-31T00:35:47.951Z,800.65
2018-07-31T00:35:52.261Z,800.65
2018-07-31T00:35:56.575Z,800.62
2018-07-31T00:36:00.934Z,800.64
2018-07-31T00:36:05.147Z,800.6
2018-07-31T00:36:09.133Z,800.63
2018-07-31T00:36:13.231Z,800.61
2018-07-31T00:36:17.324Z,800.62
2018-07-31T00:36:21.523Z,800.59
2018-07-31T00:36:25.734Z,800.61
2018-07-31T00:36:30.057Z,800.61
2018-07-31T00:36:34.368Z,800.61
2018-07-31T00:36:38.679Z,800.62
2018-07-31T00:36:42.670Z,800.57
2018-07-31T00:36:46.870Z,800.58
2018-07-31T00:36:50.961Z,800.57
2018-07-31T00:36:55.060Z,800.59
2018-07-31T00:36:59.266Z,800.61
2018-07-31T00:37:03.413Z,800.61
2018-07-31T00:37:07.504Z,800.62
2018-07-31T00:37:11.810Z,800.61
2018-07-31T00:37:16.012Z,800.61
2018-07-31T00:37:20.208Z,800.54
2018-07-31T00:37:24.512Z,800.59
2018-07-31T00:37:28.613Z,800.59
2018-07-31T00:37:32.929Z,800.61
2018-07-31T00:37:37.128Z,800.59
2018-07-31T00:37:41.441Z,800.58
2018-07-31T00:37:45.642Z,800.6
2018-07-31T00:37:49.844Z,800.55
2018-07-31T00:37:54.063Z,800.58
2018-07-31T00:37:58.263Z,800.59
2018-07-31T00:38:02.303Z,800.61
2018-07-31T00:38:06.619Z,800.6
2018-07-31T00:38:10.714Z,800.56
2018-07-31T00:38:15.021Z,800.56
2018-07-31T00:38:19.226Z,800.6
2018-07-31T00:38:23.532Z,800.57
2018-07-31T00:38:27.735Z,800.56
2018-07-31T00:38:31.938Z,800.55
2018-07-31T00:38:36.243Z,800.59
2018-07-31T00:38:40.566Z,800.57
2018-07-31T00:38:44.767Z,800.57
2018-07-31T00:38:49.078Z,800.57
2018-07-31T00:38:53.172Z,800.53
2018-07-31T00:38:57.374Z,800.56
2018-07-31T00:39:01.690Z,800.56
2018-07-31T00:39:05.900Z,800.57
2018-07-31T00:39:10.097Z,800.55
2018-07-31T00:39:14.404Z,800.53
2018-07-31T00:39:18.391Z,800.56
2018-07-31T00:39:22.696Z,800.52
2018-07-31T00:39:26.898Z,800.55
2018-07-31T00:39:31.132Z,800.54
2018-07-31T00:39:35.336Z,800.51
2018-07-31T00:39:39.639Z,800.54
2018-07-31T00:39:43.835Z,800.53
2018-07-31T00:39:48.040Z,800.51
2018-07-31T00:39:52.256Z,800.54
2018-07-31T00:39:56.247Z,800.54
2018-07-31T00:40:00.551Z,800.5
2018-07-31T00:40:04.761Z,800.55
2018-07-31T00:40:08.851Z,800.51
2018-07-31T00:40:13.152Z,800.51
2018-07-31T00:40:17.243Z,800.53
2018-07-31T00:40:21.444Z,800.51
2018-07-31T00:40:25.800Z,800.49
2018-07-31T00:40:30.108Z,800.53
2018-07-31T00:40:34.424Z,800.49
2018-07-31T00:40:38.624Z,800.53
2018-07-31T00:40:42.822Z,800.46
2018-07-31T00:40:47.020Z,800.51
2018-07-31T00:40:51.326Z,800.49
2018-07-31T00:40:55.528Z,800.49
2018-07-31T00:40:59.725Z,800.52
2018-07-31T00:41:03.974Z,800.53
2018-07-31T00:41:08.068Z,800.5
2018-07-31T00:41:12.377Z,800.49
2018-07-31T00:41:16.471Z,800.51
2018-07-31T00:41:20.574Z,800.49
2018-07-31T00:41:24.779Z,800.51
2018-07-31T00:41:28.983Z,800.49
2018-07-31T00:41:33.080Z,800.5
2018-07-31T00:41:37.173Z,800.49
2018-07-31T00:41:41.384Z,800.49
2018-07-31T00:41:45.583Z,800.47
2018-07-31T00:41:49.785Z,800.49
2018-07-31T00:41:53.876Z,800.45
2018-07-31T00:41:58.192Z,800.47
2018-07-31T00:42:02.288Z,800.46
2018-07-31T00:42:06.504Z,800.45
2018-07-31T00:42:10.595Z,800.48
2018-07-31T00:42:14.800Z,800.45
2018-07-31T00:42:18.889Z,800.43
2018-07-31T00:42:23.084Z,800.43
2018-07-31T00:42:27.178Z,800.41
2018-07-31T00:42:31.281Z,800.41
2018-07-31T00:42:35.599Z,800.42
2018-07-31T00:42:39.813Z,800.37
2018-07-31T00:42:44.119Z,800.43
2018-07-31T00:42:48.426Z,800.4
2018-07-31T00:42:52.737Z,800.42
2018-07-31T00:42:56.947Z,800.39
2018-07-31T00:43:01.266Z,800.39
2018-07-31T00:43:05.576Z,800.39
2018-07-31T00:43:09.780Z,800.36
2018-07-31T00:43:13.983Z,800.32
2018-07-31T00:43:18.190Z,800.34
2018-07-31T00:43:22.500Z,800.36
2018-07-31T00:43:26.600Z,800.3
2018-07-31T00:43:30.654Z,800.33
2018-07-31T00:43:34.969Z,800.34
2018-07-31T00:43:39.173Z,800.33
2018-07-31T00:43:43.270Z,800.35
2018-07-31T00:43:47.469Z,800.32
2018-07-31T00:43:51.565Z,800.3
2018-07-31T00:43:55.927Z,800.3
2018-07-31T00:44:00.244Z,800.3
2018-07-31T00:44:04.451Z,800.29
2018-07-31T00:44:08.653Z,800.29
2018-07-31T00:44:12.854Z,800.26
2018-07-31T00:44:17.057Z,800.27
2018-07-31T00:44:21.254Z,800.27
2018-07-31T00:44:25.493Z,800.29
2018-07-31T00:44:29.486Z,800.29
2018-07-31T00:44:33.584Z,800.21
2018-07-31T00:44:37.899Z,800.24
2018-07-31T00:44:42.098Z,800.2
2018-07-31T00:44:46.307Z,800.22
2018-07-31T00:44:50.621Z,800.2
2018-07-31T00:44:54.715Z,800.19
2018-07-31T00:44:59.024Z,800.2
2018-07-31T00:45:03.016Z,800.14
2018-07-31T00:45:07.003Z,800.13
2018-07-31T00:45:11.310Z,800.15
2018-07-31T00:45:15.509Z,800.14
2018-07-31T00:45:19.708Z,800.11
2018-07-31T00:45:23.914Z,800.1
2018-07-31T00:45:28.219Z,800.15
2018-07-31T00:45:32.313Z,800.15
2018-07-31T00:45:36.512Z,800.12
2018-07-31T00:45:40.715Z,800.09
2018-07-31T00:45:44.708Z,800.05
2018-07-31T00:45:49.058Z,800.07
2018-07-31T00:45:53.374Z,800.05
2018-07-31T00:45:57.573Z,800.06
2018-07-31T00:46:01.777Z,800.09
2018-07-31T00:46:05.766Z,800.07
2018-07-31T00:46:09.753Z,800.07
2018-07-31T00:46:14.067Z,799.99
2018-07-31T00:46:18.262Z,800.02
2018-07-31T00:46:22.250Z,799.97
2018-07-31T00:46:26.355Z,799.97
2018-07-31T00:46:30.344Z,800
2018-07-31T00:46:34.545Z,800.01
2018-07-31T00:46:38.856Z,799.95
2018-07-31T00:46:43.164Z,799.98
2018-07-31T00:46:47.471Z,800
2018-07-31T00:46:51.572Z,799.99
2018-07-31T00:46:55.455Z,799.98
2018-07-31T00:46:59.655Z,799.98
2018-07-31T00:47:03.968Z,800
2018-07-31T00:47:08.168Z,799.97
2018-07-31T00:47:12.368Z,799.94
2018-07-31T00:47:16.566Z,799.97
2018-07-31T00:47:20.769Z,799.95
2018-07-31T00:47:24.971Z,799.95
2018-07-31T00:47:28.958Z,799.95
2018-07-31T00:47:33.261Z,799.94
2018-07-31T00:47:37.357Z,799.93
2018-07-31T00:47:41.344Z,799.94
2018-07-31T00:47:45.437Z,799.93
2018-07-31T00:47:49.748Z,799.93
2018-07-31T00:47:53.947Z,799.9
2018-07-31T00:47:58.043Z,799.88
2018-07-31T00:48:02.303Z,799.92
2018-07-31T00:48:06.295Z,799.91
2018-07-31T00:48:10.605Z,799.93
2018-07-31T00:48:14.926Z,799.93
2018-07-31T00:48:19.132Z,799.86
2018-07-31T00:48:23.331Z,799.86
2018-07-31T00:48:27.661Z,799.89
2018-07-31T00:48:31.971Z,799.89
2018-07-31T00:48:36.172Z,799.87
2018-07-31T00:48:40.261Z,799.9
2018-07-31T00:48:44.359Z,799.89
2018-07-31T00:48:48.560Z,799.88
2018-07-31T00:48:52.759Z,799.88
2018-07-31T00:48:56.961Z,799.89
2018-07-31T00:49:01.160Z,799.88
2018-07-31T00:49:05.255Z,799.89
2018-07-31T00:49:09.244Z,799.87
2018-07-31T00:49:13.458Z,799.86
2018-07-31T00:49:17.664Z,799.88
2018-07-31T00:49:21.652Z,799.86
2018-07-31T00:49:25.860Z,799.87
2018-07-31T00:49:30.065Z,799.84
2018-07-31T00:49:34.161Z,799.82
2018-07-31T00:49:38.357Z,799.83
2018-07-31T00:49:42.451Z,799.83
2018-07-31T00:49:46.661Z,799.84
2018-07-31T00:49:50.756Z,799.8
2018-07-31T00:49:55.064Z,799.78
2018-07-31T00:49:59.273Z,799.81
2018-07-31T00:50:03.491Z,799.8
2018-07-31T00:50:07.593Z,799.8
2018-07-31T00:50:11.908Z,799.78
2018-07-31T00:50:15.999Z,799.83
2018-07-31T00:50:20.094Z,799.81
2018-07-31T00:50:24.293Z,799.8
2018-07-31T00:50:28.495Z,799.78
2018-07-31T00:50:32.699Z,799.79
2018-07-31T00:50:36.931Z,799.78
2018-07-31T00:50:41.131Z,799.78
2018-07-31T00:50:45.437Z,799.78
2018-07-31T00:50:49.782Z,799.76
2018-07-31T00:50:53.992Z,799.78
2018-07-31T00:50:58.200Z,799.78
2018-07-31T00:51:02.297Z,799.74
2018-07-31T00:51:06.500Z,799.75
2018-07-31T00:51:10.807Z,799.77
2018-07-31T00:51:15.116Z,799.77
2018-07-31T00:51:19.316Z,799.74
2018-07-31T00:51:23.516Z,799.72
2018-07-31T00:51:27.611Z,799.76
2018-07-31T00:51:31.923Z,799.73
2018-07-31T00:51:36.234Z,799.74
2018-07-31T00:51:40.436Z,799.73
2018-07-31T00:51:44.746Z,799.72
2018-07-31T00:51:48.844Z,799.73
2018-07-31T00:51:52.944Z,799.71
2018-07-31T00:51:57.253Z,799.75
2018-07-31T00:52:01.460Z,799.7
2018-07-31T00:52:05.451Z,799.69
2018-07-31T00:52:09.545Z,799.7
2018-07-31T00:52:13.750Z,799.68
2018-07-31T00:52:17.841Z,799.63
2018-07-31T00:52:22.047Z,799.68
2018-07-31T00:52:25.931Z,799.65
2018-07-31T00:52:30.257Z,799.67
2018-07-31T00:52:34.456Z,799.62
2018-07-31T00:52:38.762Z,799.66
2018-07-31T00:52:43.072Z,799.63
2018-07-31T00:52:47.172Z,799.65
2018-07-31T00:52:51.371Z,799.63
2018-07-31T00:52:55.575Z,799.64
2018-07-31T00:52:59.885Z,799.63
2018-07-31T00:53:03.872Z,799.63
2018-07-31T00:53:07.964Z,799.62
2018-07-31T00:53:12.276Z,799.64
2018-07-31T00:53:16.486Z,799.64